sensor_id;sensor_type;location;lat;lon;timestamp;P1;durP1;ratioP1;P2;durP2;ratioP2
75465;SDS011;64049;46.290;44.240;2023-04-24T00:00:39;8.80;;;3.90;;
75465;SDS011;64049;46.290;44.240;2023-04-24T00:03:06;8.13;;;3.45;;
75465;SDS011;64049;46.290;44.240;2023-04-24T00:05:33;7.10;;;3.20;;
75465;SDS011;64049;46.290;44.240;2023-04-24T00:08:00;7.97;;;3.88;;
75465;SDS011;64049;46.290;44.240;2023-04-24T00:10:26;6.38;;;3.85;;
75465;SDS011;64049;46.290;44.240;2023-04-24T00:12:51;7.47;;;3.38;;
75465;SDS011;64049;46.290;44.240;2023-04-24T00:15:17;7.57;;;3.83;;
75465;SDS011;64049;46.290;44.240;2023-04-24T00:17:43;7.75;;;4.10;;
75465;SDS011;64049;46.290;44.240;2023-04-24T00:20:09;7.00;;;3.47;;
75465;SDS011;64049;46.290;44.240;2023-04-24T00:22:36;7.25;;;3.88;;
75465;SDS011;64049;46.290;44.240;2023-04-24T00:25:01;8.25;;;3.55;;
75465;SDS011;64049;46.290;44.240;2023-04-24T00:27:28;9.57;;;3.88;;
75465;SDS011;64049;46.290;44.240;2023-04-24T00:29:55;7.72;;;3.83;;
75465;SDS011;64049;46.290;44.240;2023-04-24T00:32:21;8.90;;;4.85;;
75465;SDS011;64049;46.290;44.240;2023-04-24T00:34:47;7.45;;;3.38;;
75465;SDS011;64049;46.290;44.240;2023-04-24T00:37:13;8.52;;;3.72;;
75465;SDS011;64049;46.290;44.240;2023-04-24T00:42:16;7.50;;;3.20;;
75465;SDS011;64049;46.290;44.240;2023-04-24T00:44:42;6.93;;;3.20;;
75465;SDS011;64049;46.290;44.240;2023-04-24T00:47:08;7.18;;;3.58;;
75465;SDS011;64049;46.290;44.240;2023-04-24T00:49:36;8.50;;;3.85;;
75465;SDS011;64049;46.290;44.240;2023-04-24T00:52:02;7.68;;;3.58;;
75465;SDS011;64049;46.290;44.240;2023-04-24T00:54:32;9.40;;;4.50;;
75465;SDS011;64049;46.290;44.240;2023-04-24T00:56:58;8.82;;;3.85;;
75465;SDS011;64049;46.290;44.240;2023-04-24T00:59:41;8.88;;;3.83;;
75465;SDS011;64049;46.290;44.240;2023-04-24T01:02:08;6.93;;;3.65;;
75465;SDS011;64049;46.290;44.240;2023-04-24T01:07:03;7.70;;;4.28;;
75465;SDS011;64049;46.290;44.240;2023-04-24T01:09:38;9.98;;;4.55;;
75465;SDS011;64049;46.290;44.240;2023-04-24T01:12:07;7.30;;;3.28;;
75465;SDS011;64049;46.290;44.240;2023-04-24T01:14:33;8.98;;;3.60;;
75465;SDS011;64049;46.290;44.240;2023-04-24T01:16:59;8.05;;;3.95;;
75465;SDS011;64049;46.290;44.240;2023-04-24T01:19:27;7.10;;;3.50;;
75465;SDS011;64049;46.290;44.240;2023-04-24T01:21:53;10.00;;;4.30;;
75465;SDS011;64049;46.290;44.240;2023-04-24T01:24:23;7.93;;;4.78;;
75465;SDS011;64049;46.290;44.240;2023-04-24T01:26:49;8.38;;;4.15;;
75465;SDS011;64049;46.290;44.240;2023-04-24T01:29:17;6.53;;;3.47;;
75465;SDS011;64049;46.290;44.240;2023-04-24T01:31:44;7.05;;;3.58;;
75465;SDS011;64049;46.290;44.240;2023-04-24T01:34:10;6.80;;;3.50;;
75465;SDS011;64049;46.290;44.240;2023-04-24T01:36:36;7.40;;;3.45;;
75465;SDS011;64049;46.290;44.240;2023-04-24T01:39:03;6.43;;;3.83;;
75465;SDS011;64049;46.290;44.240;2023-04-24T01:41:29;7.05;;;3.40;;
75465;SDS011;64049;46.290;44.240;2023-04-24T01:43:56;6.00;;;3.10;;
75465;SDS011;64049;46.290;44.240;2023-04-24T01:46:23;8.95;;;3.15;;
75465;SDS011;64049;46.290;44.240;2023-04-24T01:48:50;7.55;;;3.00;;
75465;SDS011;64049;46.290;44.240;2023-04-24T01:51:18;6.93;;;3.63;;
75465;SDS011;64049;46.290;44.240;2023-04-24T01:53:44;7.55;;;3.38;;
75465;SDS011;64049;46.290;44.240;2023-04-24T01:56:10;7.38;;;3.45;;
75465;SDS011;64049;46.290;44.240;2023-04-24T01:58:38;6.55;;;3.63;;
75465;SDS011;64049;46.290;44.240;2023-04-24T02:01:05;8.02;;;3.22;;
75465;SDS011;64049;46.290;44.240;2023-04-24T02:03:32;7.90;;;3.78;;
75465;SDS011;64049;46.290;44.240;2023-04-24T02:05:57;6.50;;;2.90;;
75465;SDS011;64049;46.290;44.240;2023-04-24T02:08:24;7.25;;;3.67;;
75465;SDS011;64049;46.290;44.240;2023-04-24T02:10:50;7.78;;;3.75;;
75465;SDS011;64049;46.290;44.240;2023-04-24T02:13:16;6.63;;;3.08;;
75465;SDS011;64049;46.290;44.240;2023-04-24T02:15:42;8.38;;;4.18;;
75465;SDS011;64049;46.290;44.240;2023-04-24T02:18:08;7.25;;;3.67;;
75465;SDS011;64049;46.290;44.240;2023-04-24T02:20:35;10.00;;;3.60;;
75465;SDS011;64049;46.290;44.240;2023-04-24T02:23:01;7.13;;;3.58;;
75465;SDS011;64049;46.290;44.240;2023-04-24T02:25:27;5.50;;;2.30;;
75465;SDS011;64049;46.290;44.240;2023-04-24T02:27:54;6.50;;;3.35;;
75465;SDS011;64049;46.290;44.240;2023-04-24T02:30:20;6.30;;;3.25;;
75465;SDS011;64049;46.290;44.240;2023-04-24T02:32:46;6.45;;;2.97;;
75465;SDS011;64049;46.290;44.240;2023-04-24T02:35:12;8.38;;;3.17;;
75465;SDS011;64049;46.290;44.240;2023-04-24T02:37:45;6.38;;;2.72;;
75465;SDS011;64049;46.290;44.240;2023-04-24T02:40:11;8.75;;;3.10;;
75465;SDS011;64049;46.290;44.240;2023-04-24T02:42:37;6.85;;;3.08;;
75465;SDS011;64049;46.290;44.240;2023-04-24T02:45:03;7.05;;;3.45;;
75465;SDS011;64049;46.290;44.240;2023-04-24T02:47:29;7.72;;;3.28;;
75465;SDS011;64049;46.290;44.240;2023-04-24T02:49:55;6.93;;;3.17;;
75465;SDS011;64049;46.290;44.240;2023-04-24T02:52:21;6.75;;;3.70;;
75465;SDS011;64049;46.290;44.240;2023-04-24T02:54:47;8.60;;;3.67;;
75465;SDS011;64049;46.290;44.240;2023-04-24T02:57:12;6.30;;;2.88;;
75465;SDS011;64049;46.290;44.240;2023-04-24T02:59:41;7.93;;;2.90;;
75465;SDS011;64049;46.290;44.240;2023-04-24T03:02:07;7.75;;;3.15;;
75465;SDS011;64049;46.290;44.240;2023-04-24T03:04:33;11.30;;;3.83;;
75465;SDS011;64049;46.290;44.240;2023-04-24T03:06:58;7.72;;;3.53;;
75465;SDS011;64049;46.290;44.240;2023-04-24T03:11:55;6.63;;;2.97;;
75465;SDS011;64049;46.290;44.240;2023-04-24T03:14:23;6.28;;;3.03;;
75465;SDS011;64049;46.290;44.240;2023-04-24T03:16:50;7.78;;;3.45;;
75465;SDS011;64049;46.290;44.240;2023-04-24T03:19:26;5.47;;;2.42;;
75465;SDS011;64049;46.290;44.240;2023-04-24T03:22:01;5.95;;;2.50;;
75465;SDS011;64049;46.290;44.240;2023-04-24T03:24:29;5.82;;;2.72;;
75465;SDS011;64049;46.290;44.240;2023-04-24T03:26:56;5.95;;;2.90;;
75465;SDS011;64049;46.290;44.240;2023-04-24T03:29:52;6.80;;;2.75;;
75465;SDS011;64049;46.290;44.240;2023-04-24T03:32:23;7.00;;;2.80;;
75465;SDS011;64049;46.290;44.240;2023-04-24T03:34:49;7.85;;;3.78;;
75465;SDS011;64049;46.290;44.240;2023-04-24T03:37:16;5.65;;;2.83;;
75465;SDS011;64049;46.290;44.240;2023-04-24T03:39:49;5.90;;;2.72;;
75465;SDS011;64049;46.290;44.240;2023-04-24T03:42:19;5.88;;;2.97;;
75465;SDS011;64049;46.290;44.240;2023-04-24T03:44:50;7.68;;;3.97;;
75465;SDS011;64049;46.290;44.240;2023-04-24T03:47:21;5.93;;;3.13;;
75465;SDS011;64049;46.290;44.240;2023-04-24T03:49:51;7.50;;;2.80;;
75465;SDS011;64049;46.290;44.240;2023-04-24T03:52:17;6.47;;;3.30;;
75465;SDS011;64049;46.290;44.240;2023-04-24T03:54:43;7.53;;;2.78;;
75465;SDS011;64049;46.290;44.240;2023-04-24T03:57:10;6.70;;;3.60;;
75465;SDS011;64049;46.290;44.240;2023-04-24T03:59:42;10.73;;;3.92;;
75465;SDS011;64049;46.290;44.240;2023-04-24T04:02:16;8.95;;;3.45;;
75465;SDS011;64049;46.290;44.240;2023-04-24T04:04:42;8.43;;;3.10;;
75465;SDS011;64049;46.290;44.240;2023-04-24T04:07:09;8.35;;;3.40;;
75465;SDS011;64049;46.290;44.240;2023-04-24T04:09:36;6.88;;;3.58;;
75465;SDS011;64049;46.290;44.240;2023-04-24T04:12:02;6.50;;;3.25;;
75465;SDS011;64049;46.290;44.240;2023-04-24T04:14:28;8.23;;;3.33;;
75465;SDS011;64049;46.290;44.240;2023-04-24T04:16:54;7.18;;;3.33;;
75465;SDS011;64049;46.290;44.240;2023-04-24T04:19:21;7.22;;;3.75;;
75465;SDS011;64049;46.290;44.240;2023-04-24T04:21:50;7.60;;;3.13;;
75465;SDS011;64049;46.290;44.240;2023-04-24T04:24:36;8.38;;;3.55;;
75465;SDS011;64049;46.290;44.240;2023-04-24T04:27:04;6.15;;;3.03;;
75465;SDS011;64049;46.290;44.240;2023-04-24T04:29:39;7.20;;;2.80;;
75465;SDS011;64049;46.290;44.240;2023-04-24T04:32:09;6.65;;;2.75;;
75465;SDS011;64049;46.290;44.240;2023-04-24T04:34:37;7.43;;;3.28;;
75465;SDS011;64049;46.290;44.240;2023-04-24T04:37:07;5.70;;;2.67;;
75465;SDS011;64049;46.290;44.240;2023-04-24T04:40:00;6.85;;;3.33;;
75465;SDS011;64049;46.290;44.240;2023-04-24T04:42:31;6.80;;;2.55;;
75465;SDS011;64049;46.290;44.240;2023-04-24T04:44:58;6.88;;;3.03;;
75465;SDS011;64049;46.290;44.240;2023-04-24T04:50:00;5.43;;;2.75;;
75465;SDS011;64049;46.290;44.240;2023-04-24T04:52:31;5.85;;;2.92;;
75465;SDS011;64049;46.290;44.240;2023-04-24T04:55:10;6.50;;;2.90;;
75465;SDS011;64049;46.290;44.240;2023-04-24T04:58:02;5.55;;;2.42;;
75465;SDS011;64049;46.290;44.240;2023-04-24T05:00:28;7.07;;;2.45;;
75465;SDS011;64049;46.290;44.240;2023-04-24T05:02:59;6.10;;;2.92;;
75465;SDS011;64049;46.290;44.240;2023-04-24T05:05:25;12.18;;;2.40;;
75465;SDS011;64049;46.290;44.240;2023-04-24T05:07:51;7.03;;;2.78;;
75465;SDS011;64049;46.290;44.240;2023-04-24T05:10:17;5.47;;;2.60;;
75465;SDS011;64049;46.290;44.240;2023-04-24T05:12:43;5.20;;;2.30;;
75465;SDS011;64049;46.290;44.240;2023-04-24T05:15:10;6.10;;;2.58;;
75465;SDS011;64049;46.290;44.240;2023-04-24T05:17:36;5.53;;;2.42;;
75465;SDS011;64049;46.290;44.240;2023-04-24T05:20:03;4.38;;;2.03;;
75465;SDS011;64049;46.290;44.240;2023-04-24T05:22:33;5.95;;;2.17;;
75465;SDS011;64049;46.290;44.240;2023-04-24T05:24:59;5.13;;;2.20;;
75465;SDS011;64049;46.290;44.240;2023-04-24T05:27:35;4.95;;;2.05;;
75465;SDS011;64049;46.290;44.240;2023-04-24T05:30:05;4.30;;;1.83;;
75465;SDS011;64049;46.290;44.240;2023-04-24T05:32:33;6.88;;;2.80;;
75465;SDS011;64049;46.290;44.240;2023-04-24T05:34:59;5.15;;;2.08;;
75465;SDS011;64049;46.290;44.240;2023-04-24T05:37:26;6.07;;;2.55;;
75465;SDS011;64049;46.290;44.240;2023-04-24T05:39:54;6.03;;;2.40;;
75465;SDS011;64049;46.290;44.240;2023-04-24T05:42:20;7.25;;;2.78;;
75465;SDS011;64049;46.290;44.240;2023-04-24T05:44:46;7.53;;;2.47;;
75465;SDS011;64049;46.290;44.240;2023-04-24T05:47:12;5.65;;;2.30;;
75465;SDS011;64049;46.290;44.240;2023-04-24T05:49:39;5.57;;;2.28;;
75465;SDS011;64049;46.290;44.240;2023-04-24T05:52:06;7.60;;;2.90;;
75465;SDS011;64049;46.290;44.240;2023-04-24T05:54:38;7.05;;;2.65;;
75465;SDS011;64049;46.290;44.240;2023-04-24T05:57:05;6.88;;;2.63;;
75465;SDS011;64049;46.290;44.240;2023-04-24T05:59:47;6.20;;;2.40;;
75465;SDS011;64049;46.290;44.240;2023-04-24T06:02:14;7.22;;;2.47;;
75465;SDS011;64049;46.290;44.240;2023-04-24T06:04:40;6.70;;;2.58;;
75465;SDS011;64049;46.290;44.240;2023-04-24T06:07:06;7.43;;;2.78;;
75465;SDS011;64049;46.290;44.240;2023-04-24T06:09:32;5.47;;;2.50;;
75465;SDS011;64049;46.290;44.240;2023-04-24T06:11:58;5.80;;;2.72;;
75465;SDS011;64049;46.290;44.240;2023-04-24T06:14:33;6.15;;;2.65;;
75465;SDS011;64049;46.290;44.240;2023-04-24T06:17:14;6.05;;;2.58;;
75465;SDS011;64049;46.290;44.240;2023-04-24T06:19:41;4.82;;;2.58;;
75465;SDS011;64049;46.290;44.240;2023-04-24T06:22:07;6.20;;;2.60;;
75465;SDS011;64049;46.290;44.240;2023-04-24T06:24:33;6.45;;;2.50;;
75465;SDS011;64049;46.290;44.240;2023-04-24T06:26:59;4.90;;;2.22;;
75465;SDS011;64049;46.290;44.240;2023-04-24T06:29:26;5.93;;;2.20;;
75465;SDS011;64049;46.290;44.240;2023-04-24T06:31:52;6.70;;;2.75;;
75465;SDS011;64049;46.290;44.240;2023-04-24T06:34:18;8.00;;;3.38;;
75465;SDS011;64049;46.290;44.240;2023-04-24T06:36:45;4.97;;;2.08;;
75465;SDS011;64049;46.290;44.240;2023-04-24T06:39:12;5.47;;;2.47;;
75465;SDS011;64049;46.290;44.240;2023-04-24T06:41:38;5.32;;;2.30;;
75465;SDS011;64049;46.290;44.240;2023-04-24T06:44:05;5.40;;;2.70;;
75465;SDS011;64049;46.290;44.240;2023-04-24T06:46:31;5.05;;;2.33;;
75465;SDS011;64049;46.290;44.240;2023-04-24T06:48:57;5.10;;;2.60;;
75465;SDS011;64049;46.290;44.240;2023-04-24T06:51:23;4.45;;;1.98;;
75465;SDS011;64049;46.290;44.240;2023-04-24T06:53:50;7.60;;;2.42;;
75465;SDS011;64049;46.290;44.240;2023-04-24T06:56:17;4.90;;;2.20;;
75465;SDS011;64049;46.290;44.240;2023-04-24T07:01:13;5.90;;;2.85;;
75465;SDS011;64049;46.290;44.240;2023-04-24T07:03:39;6.80;;;2.50;;
75465;SDS011;64049;46.290;44.240;2023-04-24T07:06:05;7.10;;;3.58;;
75465;SDS011;64049;46.290;44.240;2023-04-24T07:08:33;4.13;;;2.13;;
75465;SDS011;64049;46.290;44.240;2023-04-24T07:13:25;4.28;;;1.92;;
75465;SDS011;64049;46.290;44.240;2023-04-24T07:15:51;5.25;;;2.10;;
75465;SDS011;64049;46.290;44.240;2023-04-24T07:18:20;6.68;;;2.28;;
75465;SDS011;64049;46.290;44.240;2023-04-24T07:20:46;4.65;;;1.85;;
75465;SDS011;64049;46.290;44.240;2023-04-24T07:23:12;3.92;;;1.73;;
75465;SDS011;64049;46.290;44.240;2023-04-24T07:25:38;4.93;;;1.90;;
75465;SDS011;64049;46.290;44.240;2023-04-24T07:28:04;5.05;;;1.90;;
75465;SDS011;64049;46.290;44.240;2023-04-24T07:30:31;4.72;;;1.73;;
75465;SDS011;64049;46.290;44.240;2023-04-24T07:32:58;5.20;;;1.73;;
75465;SDS011;64049;46.290;44.240;2023-04-24T07:35:25;6.68;;;2.28;;
75465;SDS011;64049;46.290;44.240;2023-04-24T07:37:54;6.15;;;1.90;;
75465;SDS011;64049;46.290;44.240;2023-04-24T07:40:20;3.67;;;1.60;;
75465;SDS011;64049;46.290;44.240;2023-04-24T07:42:47;5.53;;;1.88;;
75465;SDS011;64049;46.290;44.240;2023-04-24T07:45:13;4.75;;;1.80;;
75465;SDS011;64049;46.290;44.240;2023-04-24T07:47:42;5.13;;;1.92;;
75465;SDS011;64049;46.290;44.240;2023-04-24T07:50:11;4.47;;;1.65;;
75465;SDS011;64049;46.290;44.240;2023-04-24T07:52:38;5.43;;;1.77;;
75465;SDS011;64049;46.290;44.240;2023-04-24T07:55:04;4.28;;;1.83;;
75465;SDS011;64049;46.290;44.240;2023-04-24T07:57:30;4.90;;;1.95;;
75465;SDS011;64049;46.290;44.240;2023-04-24T07:59:56;6.20;;;1.80;;
75465;SDS011;64049;46.290;44.240;2023-04-24T08:02:22;4.38;;;1.85;;
75465;SDS011;64049;46.290;44.240;2023-04-24T08:04:54;4.30;;;1.80;;
75465;SDS011;64049;46.290;44.240;2023-04-24T08:07:21;6.03;;;2.05;;
75465;SDS011;64049;46.290;44.240;2023-04-24T08:09:48;8.93;;;1.98;;
75465;SDS011;64049;46.290;44.240;2023-04-24T08:12:14;4.10;;;1.52;;
75465;SDS011;64049;46.290;44.240;2023-04-24T08:14:40;6.85;;;2.13;;
75465;SDS011;64049;46.290;44.240;2023-04-24T08:17:06;5.65;;;1.70;;
75465;SDS011;64049;46.290;44.240;2023-04-24T08:19:32;6.60;;;1.80;;
75465;SDS011;64049;46.290;44.240;2023-04-24T08:21:57;3.70;;;1.55;;
75465;SDS011;64049;46.290;44.240;2023-04-24T08:24:23;8.00;;;1.85;;
75465;SDS011;64049;46.290;44.240;2023-04-24T08:26:49;3.58;;;1.60;;
75465;SDS011;64049;46.290;44.240;2023-04-24T08:29:16;4.78;;;1.50;;
75465;SDS011;64049;46.290;44.240;2023-04-24T08:31:42;7.47;;;2.20;;
75465;SDS011;64049;46.290;44.240;2023-04-24T08:34:09;4.03;;;1.70;;
75465;SDS011;64049;46.290;44.240;2023-04-24T08:36:36;4.68;;;1.77;;
75465;SDS011;64049;46.290;44.240;2023-04-24T08:39:02;3.58;;;1.40;;
75465;SDS011;64049;46.290;44.240;2023-04-24T08:41:29;5.50;;;1.50;;
75465;SDS011;64049;46.290;44.240;2023-04-24T08:43:56;5.55;;;2.33;;
75465;SDS011;64049;46.290;44.240;2023-04-24T08:46:24;3.83;;;1.50;;
75465;SDS011;64049;46.290;44.240;2023-04-24T08:48:50;3.25;;;1.40;;
75465;SDS011;64049;46.290;44.240;2023-04-24T08:51:19;4.65;;;1.60;;
75465;SDS011;64049;46.290;44.240;2023-04-24T08:53:46;4.15;;;1.70;;
75465;SDS011;64049;46.290;44.240;2023-04-24T08:56:12;4.55;;;1.60;;
75465;SDS011;64049;46.290;44.240;2023-04-24T08:58:38;2.85;;;1.25;;
75465;SDS011;64049;46.290;44.240;2023-04-24T09:01:05;3.72;;;1.50;;
75465;SDS011;64049;46.290;44.240;2023-04-24T09:03:33;6.03;;;2.95;;
75465;SDS011;64049;46.290;44.240;2023-04-24T09:05:59;6.13;;;1.40;;
75465;SDS011;64049;46.290;44.240;2023-04-24T09:08:27;4.13;;;1.58;;
75465;SDS011;64049;46.290;44.240;2023-04-24T09:10:54;4.78;;;1.77;;
75465;SDS011;64049;46.290;44.240;2023-04-24T09:13:20;3.50;;;1.25;;
75465;SDS011;64049;46.290;44.240;2023-04-24T09:15:46;4.45;;;1.45;;
75465;SDS011;64049;46.290;44.240;2023-04-24T09:18:12;5.35;;;1.45;;
75465;SDS011;64049;46.290;44.240;2023-04-24T09:20:57;1.98;;;0.75;;
75465;SDS011;64049;46.290;44.240;2023-04-24T09:23:29;2.83;;;1.20;;
75465;SDS011;64049;46.290;44.240;2023-04-24T09:25:56;2.88;;;1.10;;
75465;SDS011;64049;46.290;44.240;2023-04-24T09:28:37;4.60;;;1.50;;
75465;SDS011;64049;46.290;44.240;2023-04-24T09:31:14;3.92;;;1.52;;
75465;SDS011;64049;46.290;44.240;2023-04-24T09:34:02;4.25;;;1.30;;
75465;SDS011;64049;46.290;44.240;2023-04-24T09:36:33;4.80;;;1.27;;
75465;SDS011;64049;46.290;44.240;2023-04-24T09:39:04;5.20;;;1.95;;
75465;SDS011;64049;46.290;44.240;2023-04-24T09:41:50;6.93;;;1.67;;
75465;SDS011;64049;46.290;44.240;2023-04-24T09:44:24;3.47;;;1.13;;
75465;SDS011;64049;46.290;44.240;2023-04-24T09:46:53;2.70;;;1.05;;
75465;SDS011;64049;46.290;44.240;2023-04-24T09:49:24;3.28;;;1.30;;
75465;SDS011;64049;46.290;44.240;2023-04-24T09:51:51;3.13;;;1.20;;
75465;SDS011;64049;46.290;44.240;2023-04-24T09:54:19;3.10;;;1.23;;
75465;SDS011;64049;46.290;44.240;2023-04-24T09:56:49;4.55;;;1.30;;
75465;SDS011;64049;46.290;44.240;2023-04-24T09:59:19;5.15;;;1.40;;
75465;SDS011;64049;46.290;44.240;2023-04-24T10:01:45;2.63;;;1.30;;
75465;SDS011;64049;46.290;44.240;2023-04-24T10:04:20;3.70;;;1.20;;
75465;SDS011;64049;46.290;44.240;2023-04-24T10:06:49;4.70;;;1.25;;
75465;SDS011;64049;46.290;44.240;2023-04-24T10:09:17;5.65;;;1.58;;
75465;SDS011;64049;46.290;44.240;2023-04-24T10:11:44;3.17;;;1.10;;
75465;SDS011;64049;46.290;44.240;2023-04-24T10:14:15;3.03;;;0.95;;
75465;SDS011;64049;46.290;44.240;2023-04-24T10:16:43;5.68;;;1.60;;
75465;SDS011;64049;46.290;44.240;2023-04-24T10:19:12;7.53;;;1.40;;
75465;SDS011;64049;46.290;44.240;2023-04-24T10:21:39;5.13;;;1.20;;
75465;SDS011;64049;46.290;44.240;2023-04-24T10:24:12;4.93;;;1.35;;
75465;SDS011;64049;46.290;44.240;2023-04-24T10:26:39;2.85;;;1.05;;
75465;SDS011;64049;46.290;44.240;2023-04-24T10:29:05;6.85;;;1.42;;
75465;SDS011;64049;46.290;44.240;2023-04-24T10:31:35;4.70;;;1.50;;
75465;SDS011;64049;46.290;44.240;2023-04-24T10:34:02;8.10;;;1.88;;
75465;SDS011;64049;46.290;44.240;2023-04-24T10:36:30;6.88;;;1.55;;
75465;SDS011;64049;46.290;44.240;2023-04-24T10:38:59;6.13;;;1.20;;
75465;SDS011;64049;46.290;44.240;2023-04-24T10:41:27;4.65;;;1.00;;
75465;SDS011;64049;46.290;44.240;2023-04-24T10:44:05;2.67;;;0.90;;
75465;SDS011;64049;46.290;44.240;2023-04-24T10:46:35;3.45;;;1.08;;
75465;SDS011;64049;46.290;44.240;2023-04-24T10:49:07;6.97;;;1.33;;
75465;SDS011;64049;46.290;44.240;2023-04-24T10:51:50;4.60;;;1.25;;
75465;SDS011;64049;46.290;44.240;2023-04-24T10:54:29;6.30;;;2.08;;
75465;SDS011;64049;46.290;44.240;2023-04-24T10:59:44;5.22;;;0.82;;
75465;SDS011;64049;46.290;44.240;2023-04-24T11:02:10;9.20;;;1.58;;
75465;SDS011;64049;46.290;44.240;2023-04-24T11:04:36;3.08;;;1.17;;
75465;SDS011;64049;46.290;44.240;2023-04-24T11:07:02;9.40;;;1.30;;
75465;SDS011;64049;46.290;44.240;2023-04-24T11:09:32;6.38;;;1.40;;
75465;SDS011;64049;46.290;44.240;2023-04-24T11:12:05;2.45;;;0.82;;
75465;SDS011;64049;46.290;44.240;2023-04-24T11:17:30;3.05;;;1.00;;
75465;SDS011;64049;46.290;44.240;2023-04-24T11:20:06;4.00;;;1.10;;
75465;SDS011;64049;46.290;44.240;2023-04-24T11:22:35;4.93;;;1.10;;
75465;SDS011;64049;46.290;44.240;2023-04-24T11:25:02;3.20;;;0.98;;
75465;SDS011;64049;46.290;44.240;2023-04-24T11:27:31;3.05;;;1.17;;
75465;SDS011;64049;46.290;44.240;2023-04-24T11:30:05;5.15;;;1.27;;
75465;SDS011;64049;46.290;44.240;2023-04-24T11:32:35;4.28;;;0.93;;
75465;SDS011;64049;46.290;44.240;2023-04-24T11:35:07;3.83;;;0.95;;
75465;SDS011;64049;46.290;44.240;2023-04-24T11:37:41;6.70;;;1.00;;
75465;SDS011;64049;46.290;44.240;2023-04-24T11:40:09;6.95;;;1.30;;
75465;SDS011;64049;46.290;44.240;2023-04-24T11:42:37;5.35;;;1.10;;
75465;SDS011;64049;46.290;44.240;2023-04-24T11:45:07;4.45;;;1.13;;
75465;SDS011;64049;46.290;44.240;2023-04-24T11:47:35;4.65;;;1.20;;
75465;SDS011;64049;46.290;44.240;2023-04-24T11:50:01;3.63;;;1.05;;
75465;SDS011;64049;46.290;44.240;2023-04-24T11:52:31;4.78;;;0.93;;
75465;SDS011;64049;46.290;44.240;2023-04-24T11:54:59;4.95;;;1.10;;
75465;SDS011;64049;46.290;44.240;2023-04-24T11:57:25;3.15;;;1.00;;
75465;SDS011;64049;46.290;44.240;2023-04-24T11:59:59;4.57;;;1.00;;
75465;SDS011;64049;46.290;44.240;2023-04-24T12:02:26;6.55;;;1.17;;
75465;SDS011;64049;46.290;44.240;2023-04-24T12:04:53;3.50;;;0.90;;
75465;SDS011;64049;46.290;44.240;2023-04-24T12:07:19;3.42;;;1.20;;
75465;SDS011;64049;46.290;44.240;2023-04-24T12:09:55;5.47;;;1.23;;
75465;SDS011;64049;46.290;44.240;2023-04-24T12:12:23;3.35;;;0.90;;
75465;SDS011;64049;46.290;44.240;2023-04-24T12:14:54;2.72;;;0.95;;
75465;SDS011;64049;46.290;44.240;2023-04-24T12:17:26;3.70;;;1.00;;
75465;SDS011;64049;46.290;44.240;2023-04-24T12:20:03;7.57;;;1.13;;
75465;SDS011;64049;46.290;44.240;2023-04-24T12:22:46;3.90;;;1.00;;
75465;SDS011;64049;46.290;44.240;2023-04-24T12:25:16;7.03;;;1.10;;
75465;SDS011;64049;46.290;44.240;2023-04-24T12:27:44;3.88;;;0.85;;
75465;SDS011;64049;46.290;44.240;2023-04-24T12:30:15;6.32;;;1.30;;
75465;SDS011;64049;46.290;44.240;2023-04-24T12:32:45;4.32;;;1.35;;
75465;SDS011;64049;46.290;44.240;2023-04-24T12:35:14;6.15;;;1.30;;
75465;SDS011;64049;46.290;44.240;2023-04-24T12:37:45;3.17;;;1.00;;
75465;SDS011;64049;46.290;44.240;2023-04-24T12:40:12;6.63;;;1.23;;
75465;SDS011;64049;46.290;44.240;2023-04-24T12:42:45;6.18;;;1.30;;
75465;SDS011;64049;46.290;44.240;2023-04-24T12:45:15;3.72;;;0.98;;
75465;SDS011;64049;46.290;44.240;2023-04-24T12:47:43;3.97;;;1.15;;
75465;SDS011;64049;46.290;44.240;2023-04-24T12:50:10;3.85;;;1.08;;
75465;SDS011;64049;46.290;44.240;2023-04-24T12:52:37;3.28;;;1.10;;
75465;SDS011;64049;46.290;44.240;2023-04-24T12:55:04;4.32;;;1.20;;
75465;SDS011;64049;46.290;44.240;2023-04-24T12:57:33;4.63;;;1.23;;
75465;SDS011;64049;46.290;44.240;2023-04-24T13:00:00;3.85;;;1.45;;
75465;SDS011;64049;46.290;44.240;2023-04-24T13:02:27;7.57;;;1.13;;
75465;SDS011;64049;46.290;44.240;2023-04-24T13:04:55;4.47;;;1.08;;
75465;SDS011;64049;46.290;44.240;2023-04-24T13:07:21;4.30;;;1.00;;
75465;SDS011;64049;46.290;44.240;2023-04-24T13:09:47;4.22;;;0.95;;
75465;SDS011;64049;46.290;44.240;2023-04-24T13:14:40;6.45;;;0.90;;
75465;SDS011;64049;46.290;44.240;2023-04-24T13:17:06;4.30;;;1.40;;
75465;SDS011;64049;46.290;44.240;2023-04-24T13:19:39;5.40;;;1.30;;
75465;SDS011;64049;46.290;44.240;2023-04-24T13:22:06;5.22;;;1.10;;
75465;SDS011;64049;46.290;44.240;2023-04-24T13:26:59;4.40;;;1.13;;
75465;SDS011;64049;46.290;44.240;2023-04-24T13:29:26;12.35;;;1.95;;
75465;SDS011;64049;46.290;44.240;2023-04-24T13:31:53;6.47;;;1.15;;
75465;SDS011;64049;46.290;44.240;2023-04-24T13:34:20;5.15;;;1.17;;
75465;SDS011;64049;46.290;44.240;2023-04-24T13:36:47;4.47;;;1.02;;
75465;SDS011;64049;46.290;44.240;2023-04-24T13:39:13;5.07;;;1.23;;
75465;SDS011;64049;46.290;44.240;2023-04-24T13:41:39;10.43;;;1.23;;
75465;SDS011;64049;46.290;44.240;2023-04-24T13:44:05;6.47;;;1.23;;
75465;SDS011;64049;46.290;44.240;2023-04-24T13:46:31;5.63;;;1.40;;
75465;SDS011;64049;46.290;44.240;2023-04-24T13:48:58;3.33;;;1.10;;
75465;SDS011;64049;46.290;44.240;2023-04-24T13:51:27;4.07;;;1.10;;
75465;SDS011;64049;46.290;44.240;2023-04-24T13:53:53;4.40;;;1.13;;
75465;SDS011;64049;46.290;44.240;2023-04-24T13:56:20;5.15;;;1.40;;
75465;SDS011;64049;46.290;44.240;2023-04-24T13:58:47;6.78;;;1.70;;
75465;SDS011;64049;46.290;44.240;2023-04-24T14:01:14;5.53;;;1.98;;
75465;SDS011;64049;46.290;44.240;2023-04-24T14:03:41;9.52;;;2.15;;
75465;SDS011;64049;46.290;44.240;2023-04-24T14:06:08;17.35;;;2.90;;
75465;SDS011;64049;46.290;44.240;2023-04-24T14:08:34;14.35;;;2.85;;
75465;SDS011;64049;46.290;44.240;2023-04-24T14:11:00;11.32;;;3.03;;
75465;SDS011;64049;46.290;44.240;2023-04-24T14:13:26;12.68;;;3.13;;
75465;SDS011;64049;46.290;44.240;2023-04-24T14:15:52;10.07;;;3.28;;
75465;SDS011;64049;46.290;44.240;2023-04-24T14:18:18;10.68;;;3.13;;
75465;SDS011;64049;46.290;44.240;2023-04-24T14:20:44;11.57;;;3.10;;
75465;SDS011;64049;46.290;44.240;2023-04-24T14:23:11;14.80;;;2.47;;
75465;SDS011;64049;46.290;44.240;2023-04-24T14:25:37;16.63;;;3.33;;
75465;SDS011;64049;46.290;44.240;2023-04-24T14:28:03;13.63;;;3.92;;
75465;SDS011;64049;46.290;44.240;2023-04-24T14:30:29;11.25;;;2.35;;
75465;SDS011;64049;46.290;44.240;2023-04-24T14:32:55;9.95;;;2.78;;
75465;SDS011;64049;46.290;44.240;2023-04-24T14:35:21;9.40;;;2.45;;
75465;SDS011;64049;46.290;44.240;2023-04-24T14:37:47;11.82;;;2.08;;
75465;SDS011;64049;46.290;44.240;2023-04-24T14:40:14;10.55;;;2.58;;
75465;SDS011;64049;46.290;44.240;2023-04-24T14:42:40;9.85;;;2.67;;
75465;SDS011;64049;46.290;44.240;2023-04-24T14:45:06;9.10;;;2.40;;
75465;SDS011;64049;46.290;44.240;2023-04-24T14:47:33;12.80;;;2.03;;
75465;SDS011;64049;46.290;44.240;2023-04-24T14:50:03;6.15;;;1.55;;
75465;SDS011;64049;46.290;44.240;2023-04-24T14:52:29;11.82;;;2.63;;
75465;SDS011;64049;46.290;44.240;2023-04-24T14:54:57;10.75;;;2.20;;
75465;SDS011;64049;46.290;44.240;2023-04-24T14:57:23;10.38;;;2.20;;
75465;SDS011;64049;46.290;44.240;2023-04-24T14:59:49;7.22;;;1.67;;
75465;SDS011;64049;46.290;44.240;2023-04-24T15:02:14;5.03;;;1.67;;
75465;SDS011;64049;46.290;44.240;2023-04-24T15:04:40;8.75;;;2.15;;